04IL weather

Schertz Aerial Service - Hudson Airport
Hudson, Illinois, United States

Public forecast

Using degrees Fahrenheit for public forecast. Weather courtesy of forecast.io.

Closest aviation weather report (METAR) to Schertz Aerial Service - Hudson Airport

Closest report is Central Illinois Regional Airport at Bloomington-Normal, 10.5 nm (19.4 km) SSE. Retrieved 2020/05/29 03:56 UTC (51 minutes ago):

KBMI 290356Z AUTO 26007KT 10SM BKN022 OVC029 19/19 A2991 RMK AO2 SLP123 T01890189

Closest aviation forecast (TAF) to Schertz Aerial Service - Hudson Airport

Closest forecast is Central Illinois Regional Airport at Bloomington-Normal, 10.5 nm (19.4 km) SSE. Retrieved 2020-05-29 00:22 UTC (4 hours ago):

TAF KBMI 282320Z 2900/2924 27014KT P6SM VCTS SCT045CB BKN080 FM290100 29008KT 6SM -SHRA VCTS OVC035CB FM290300 33008KT P6SM VCSH OVC035 FM290900 33009KT P6SM BKN020 FM291600 32013G20KT P6SM FEW040 SCT250